Hakasskaja, Russia
Current Conditions -  °F | °C
As of 1:30 PM on Thursday 27 Nov 2014 (Local Time) from UNAA Reporting Station
Broken Clouds Broken Clouds  
Wind Chill: 17°   Ceiling: 13000
Heat Index: 25°   Visibility: 6mi
Dew Point: 16°   Wind: 7mph
Humidity: 69%   Direction: 220°SW
Pressure: 29.56"   Gusts: NA
Location:  53.77°N, 91.32°E
Report Text: UNAA 270630Z 22003MPS 9999 SCT033CB BKN130 M04/M09 Q1001 NOSIGRMK QFE728 20090060
Loading
Personal Weather Stations






























Interactive Weather Map New forecast layout! Learn more

10-Day Weather Forecast

Advertisements
Track Severe Weather on mobile